sensor_id;sensor_type;location;lat;lon;timestamp;pressure;altitude;pressure_sealevel;temperature;humidity
12203;BME280;6164;42.178;24.622;2023-01-27T00:01:17;99025.34;;;1.61;100.00
12203;BME280;6164;42.178;24.622;2023-01-27T00:03:43;99021.41;;;1.67;100.00
12203;BME280;6164;42.178;24.622;2023-01-27T00:06:10;99015.13;;;1.69;100.00
12203;BME280;6164;42.178;24.622;2023-01-27T00:08:38;99027.06;;;1.72;100.00
12203;BME280;6164;42.178;24.622;2023-01-27T00:11:05;99038.69;;;1.68;100.00
12203;BME280;6164;42.178;24.622;2023-01-27T00:13:49;99036.88;;;1.68;100.00
12203;BME280;6164;42.178;24.622;2023-01-27T00:16:15;99042.66;;;1.72;100.00
12203;BME280;6164;42.178;24.622;2023-01-27T00:18:42;99034.19;;;1.70;100.00
12203;BME280;6164;42.178;24.622;2023-01-27T00:21:08;99033.47;;;1.68;100.00
12203;BME280;6164;42.178;24.622;2023-01-27T00:23:54;99020.47;;;1.68;100.00
12203;BME280;6164;42.178;24.622;2023-01-27T00:26:38;99022.03;;;1.80;100.00
12203;BME280;6164;42.178;24.622;2023-01-27T00:29:04;99020.28;;;1.80;100.00
12203;BME280;6164;42.178;24.622;2023-01-27T00:31:31;99015.38;;;1.87;100.00
12203;BME280;6164;42.178;24.622;2023-01-27T00:34:14;99006.25;;;1.92;100.00
12203;BME280;6164;42.178;24.622;2023-01-27T00:36:41;99002.88;;;1.81;100.00
12203;BME280;6164;42.178;24.622;2023-01-27T00:39:09;99004.84;;;1.88;100.00
12203;BME280;6164;42.178;24.622;2023-01-27T00:41:36;98997.28;;;1.85;100.00
12203;BME280;6164;42.178;24.622;2023-01-27T00:44:03;99003.81;;;1.80;100.00
12203;BME280;6164;42.178;24.622;2023-01-27T00:46:30;99013.75;;;1.86;100.00
12203;BME280;6164;42.178;24.622;2023-01-27T00:48:57;99009.41;;;1.75;100.00
12203;BME280;6164;42.178;24.622;2023-01-27T00:51:23;99003.38;;;1.75;100.00
12203;BME280;6164;42.178;24.622;2023-01-27T00:53:50;98998.56;;;1.70;100.00
12203;BME280;6164;42.178;24.622;2023-01-27T00:56:17;98997.00;;;1.58;100.00
12203;BME280;6164;42.178;24.622;2023-01-27T00:58:44;98984.72;;;1.49;100.00
12203;BME280;6164;42.178;24.622;2023-01-27T01:01:12;98981.56;;;1.46;100.00
12203;BME280;6164;42.178;24.622;2023-01-27T01:03:38;98983.72;;;1.41;100.00
12203;BME280;6164;42.178;24.622;2023-01-27T01:06:06;98976.28;;;1.36;100.00
12203;BME280;6164;42.178;24.622;2023-01-27T01:08:33;98955.03;;;1.31;100.00
12203;BME280;6164;42.178;24.622;2023-01-27T01:11:00;98946.28;;;1.32;100.00
12203;BME280;6164;42.178;24.622;2023-01-27T01:13:28;98937.94;;;1.28;100.00
12203;BME280;6164;42.178;24.622;2023-01-27T01:15:54;98943.44;;;1.35;100.00
12203;BME280;6164;42.178;24.622;2023-01-27T01:18:21;98947.13;;;1.32;100.00
12203;BME280;6164;42.178;24.622;2023-01-27T01:20:48;98959.41;;;1.30;100.00
12203;BME280;6164;42.178;24.622;2023-01-27T01:23:15;98965.91;;;1.36;100.00
12203;BME280;6164;42.178;24.622;2023-01-27T01:25:41;98989.69;;;1.31;100.00
12203;BME280;6164;42.178;24.622;2023-01-27T01:28:08;98996.00;;;1.38;100.00
12203;BME280;6164;42.178;24.622;2023-01-27T01:30:36;98989.75;;;1.41;100.00
12203;BME280;6164;42.178;24.622;2023-01-27T01:33:03;98976.75;;;1.41;100.00
12203;BME280;6164;42.178;24.622;2023-01-27T01:35:29;98962.41;;;1.47;100.00
12203;BME280;6164;42.178;24.622;2023-01-27T01:37:56;98943.56;;;1.33;100.00
12203;BME280;6164;42.178;24.622;2023-01-27T01:40:22;98943.50;;;1.45;100.00
12203;BME280;6164;42.178;24.622;2023-01-27T01:42:53;98950.59;;;1.43;100.00
12203;BME280;6164;42.178;24.622;2023-01-27T01:45:41;98946.47;;;1.40;100.00
12203;BME280;6164;42.178;24.622;2023-01-27T01:48:09;98956.13;;;1.49;100.00
12203;BME280;6164;42.178;24.622;2023-01-27T01:50:36;98956.63;;;1.64;100.00
12203;BME280;6164;42.178;24.622;2023-01-27T01:53:05;98946.53;;;1.70;100.00
12203;BME280;6164;42.178;24.622;2023-01-27T01:55:32;98950.53;;;1.74;100.00
12203;BME280;6164;42.178;24.622;2023-01-27T01:57:59;98940.31;;;1.82;100.00
12203;BME280;6164;42.178;24.622;2023-01-27T02:00:26;98949.00;;;1.92;100.00
12203;BME280;6164;42.178;24.622;2023-01-27T02:02:54;98959.28;;;1.94;100.00
12203;BME280;6164;42.178;24.622;2023-01-27T02:05:22;98948.41;;;1.89;100.00
12203;BME280;6164;42.178;24.622;2023-01-27T02:07:52;98938.44;;;1.94;100.00
12203;BME280;6164;42.178;24.622;2023-01-27T02:10:20;98933.09;;;1.95;100.00
12203;BME280;6164;42.178;24.622;2023-01-27T02:12:47;98935.00;;;1.93;100.00
12203;BME280;6164;42.178;24.622;2023-01-27T02:15:13;98929.38;;;1.88;100.00
12203;BME280;6164;42.178;24.622;2023-01-27T02:17:40;98915.63;;;1.77;100.00
12203;BME280;6164;42.178;24.622;2023-01-27T02:20:10;98907.34;;;1.62;100.00
12203;BME280;6164;42.178;24.622;2023-01-27T02:22:41;98888.50;;;1.49;100.00
12203;BME280;6164;42.178;24.622;2023-01-27T02:25:11;98873.44;;;1.43;100.00
12203;BME280;6164;42.178;24.622;2023-01-27T02:27:42;98862.84;;;1.35;100.00
12203;BME280;6164;42.178;24.622;2023-01-27T02:30:09;98867.91;;;1.37;100.00
12203;BME280;6164;42.178;24.622;2023-01-27T02:32:36;98863.66;;;1.35;100.00
12203;BME280;6164;42.178;24.622;2023-01-27T02:35:03;98859.59;;;1.43;100.00
12203;BME280;6164;42.178;24.622;2023-01-27T02:37:31;98864.72;;;1.54;100.00
12203;BME280;6164;42.178;24.622;2023-01-27T02:39:57;98879.13;;;1.58;100.00
12203;BME280;6164;42.178;24.622;2023-01-27T02:42:25;98894.91;;;1.66;100.00
12203;BME280;6164;42.178;24.622;2023-01-27T02:44:53;98900.41;;;1.72;100.00
12203;BME280;6164;42.178;24.622;2023-01-27T02:47:20;98898.50;;;1.74;100.00
12203;BME280;6164;42.178;24.622;2023-01-27T02:49:46;98883.59;;;1.76;100.00
12203;BME280;6164;42.178;24.622;2023-01-27T02:52:15;98861.53;;;1.80;100.00
12203;BME280;6164;42.178;24.622;2023-01-27T02:54:41;98858.91;;;1.71;100.00
12203;BME280;6164;42.178;24.622;2023-01-27T02:57:08;98853.28;;;1.66;100.00
12203;BME280;6164;42.178;24.622;2023-01-27T02:59:34;98873.19;;;1.76;100.00
12203;BME280;6164;42.178;24.622;2023-01-27T03:02:02;98870.44;;;1.78;100.00
12203;BME280;6164;42.178;24.622;2023-01-27T03:04:29;98862.50;;;1.79;100.00
12203;BME280;6164;42.178;24.622;2023-01-27T03:06:55;98864.31;;;1.88;100.00
12203;BME280;6164;42.178;24.622;2023-01-27T03:09:22;98869.81;;;1.95;100.00
12203;BME280;6164;42.178;24.622;2023-01-27T03:11:48;98866.69;;;2.01;100.00
12203;BME280;6164;42.178;24.622;2023-01-27T03:14:32;98869.50;;;1.88;100.00
12203;BME280;6164;42.178;24.622;2023-01-27T03:17:17;98863.22;;;1.81;100.00
12203;BME280;6164;42.178;24.622;2023-01-27T03:20:01;98856.06;;;1.83;100.00
12203;BME280;6164;42.178;24.622;2023-01-27T03:22:28;98851.13;;;1.80;100.00
12203;BME280;6164;42.178;24.622;2023-01-27T03:24:54;98843.72;;;1.76;100.00
12203;BME280;6164;42.178;24.622;2023-01-27T03:27:21;98856.91;;;1.84;100.00
12203;BME280;6164;42.178;24.622;2023-01-27T03:29:47;98869.38;;;1.90;100.00
12203;BME280;6164;42.178;24.622;2023-01-27T03:32:21;98867.34;;;1.93;100.00
12203;BME280;6164;42.178;24.622;2023-01-27T03:34:48;98866.53;;;1.93;100.00
12203;BME280;6164;42.178;24.622;2023-01-27T03:37:15;98862.56;;;1.98;100.00
12203;BME280;6164;42.178;24.622;2023-01-27T03:39:58;98872.56;;;2.03;100.00
12203;BME280;6164;42.178;24.622;2023-01-27T03:42:42;98875.38;;;2.11;100.00
12203;BME280;6164;42.178;24.622;2023-01-27T03:45:26;98863.41;;;2.08;100.00
12203;BME280;6164;42.178;24.622;2023-01-27T03:48:11;98857.66;;;2.05;100.00
12203;BME280;6164;42.178;24.622;2023-01-27T03:50:38;98856.31;;;2.10;100.00
12203;BME280;6164;42.178;24.622;2023-01-27T03:53:07;98862.06;;;2.14;100.00
12203;BME280;6164;42.178;24.622;2023-01-27T03:55:35;98856.44;;;2.09;100.00
12203;BME280;6164;42.178;24.622;2023-01-27T03:58:02;98864.53;;;2.06;100.00
12203;BME280;6164;42.178;24.622;2023-01-27T04:00:38;98871.75;;;1.93;100.00
12203;BME280;6164;42.178;24.622;2023-01-27T04:03:05;98858.31;;;1.88;100.00
12203;BME280;6164;42.178;24.622;2023-01-27T04:05:50;98852.25;;;1.87;100.00
12203;BME280;6164;42.178;24.622;2023-01-27T04:08:34;98856.19;;;1.82;100.00
12203;BME280;6164;42.178;24.622;2023-01-27T04:11:01;98855.81;;;1.86;100.00
12203;BME280;6164;42.178;24.622;2023-01-27T04:13:41;98860.22;;;1.86;100.00
12203;BME280;6164;42.178;24.622;2023-01-27T04:16:08;98855.13;;;1.84;100.00
12203;BME280;6164;42.178;24.622;2023-01-27T04:18:34;98839.38;;;1.86;100.00
12203;BME280;6164;42.178;24.622;2023-01-27T04:21:03;98840.16;;;1.77;100.00
12203;BME280;6164;42.178;24.622;2023-01-27T04:23:30;98834.81;;;1.78;100.00
12203;BME280;6164;42.178;24.622;2023-01-27T04:25:56;98843.16;;;1.72;100.00
12203;BME280;6164;42.178;24.622;2023-01-27T04:28:24;98831.25;;;1.70;100.00
12203;BME280;6164;42.178;24.622;2023-01-27T04:30:51;98844.84;;;1.83;100.00
12203;BME280;6164;42.178;24.622;2023-01-27T04:33:17;98831.78;;;1.73;100.00
12203;BME280;6164;42.178;24.622;2023-01-27T04:35:44;98825.13;;;1.80;100.00
12203;BME280;6164;42.178;24.622;2023-01-27T04:38:12;98815.94;;;1.76;100.00
12203;BME280;6164;42.178;24.622;2023-01-27T04:40:39;98813.44;;;1.75;100.00
12203;BME280;6164;42.178;24.622;2023-01-27T04:43:06;98812.50;;;1.76;100.00
12203;BME280;6164;42.178;24.622;2023-01-27T04:45:33;98810.75;;;1.76;100.00
12203;BME280;6164;42.178;24.622;2023-01-27T04:47:59;98816.75;;;1.77;100.00
12203;BME280;6164;42.178;24.622;2023-01-27T04:50:26;98815.09;;;1.76;100.00
12203;BME280;6164;42.178;24.622;2023-01-27T04:52:53;98816.19;;;1.73;100.00
12203;BME280;6164;42.178;24.622;2023-01-27T04:55:21;98826.59;;;1.73;100.00
12203;BME280;6164;42.178;24.622;2023-01-27T04:57:47;98838.41;;;1.77;100.00
12203;BME280;6164;42.178;24.622;2023-01-27T05:00:14;98845.38;;;1.86;100.00
12203;BME280;6164;42.178;24.622;2023-01-27T05:02:40;98832.94;;;1.90;100.00
12203;BME280;6164;42.178;24.622;2023-01-27T05:05:07;98828.56;;;1.90;100.00
12203;BME280;6164;42.178;24.622;2023-01-27T05:07:34;98822.53;;;1.90;100.00
12203;BME280;6164;42.178;24.622;2023-01-27T05:10:00;98824.03;;;1.83;100.00
12203;BME280;6164;42.178;24.622;2023-01-27T05:12:28;98825.53;;;1.85;100.00
12203;BME280;6164;42.178;24.622;2023-01-27T05:14:55;98840.25;;;1.96;100.00
12203;BME280;6164;42.178;24.622;2023-01-27T05:17:21;98847.94;;;2.07;100.00
12203;BME280;6164;42.178;24.622;2023-01-27T05:19:48;98854.53;;;2.11;100.00
12203;BME280;6164;42.178;24.622;2023-01-27T05:22:14;98858.63;;;2.13;100.00
12203;BME280;6164;42.178;24.622;2023-01-27T05:24:41;98861.66;;;2.18;100.00
12203;BME280;6164;42.178;24.622;2023-01-27T05:27:07;98863.44;;;2.18;100.00
12203;BME280;6164;42.178;24.622;2023-01-27T05:29:35;98863.44;;;2.18;100.00
12203;BME280;6164;42.178;24.622;2023-01-27T05:32:01;98865.25;;;2.27;100.00
12203;BME280;6164;42.178;24.622;2023-01-27T05:34:28;98868.28;;;2.32;100.00
12203;BME280;6164;42.178;24.622;2023-01-27T05:36:54;98869.78;;;2.34;100.00
12203;BME280;6164;42.178;24.622;2023-01-27T05:39:21;98871.59;;;2.34;100.00
12203;BME280;6164;42.178;24.622;2023-01-27T05:41:47;98865.41;;;2.35;100.00
12203;BME280;6164;42.178;24.622;2023-01-27T05:44:14;98863.06;;;2.32;100.00
12203;BME280;6164;42.178;24.622;2023-01-27T05:46:42;98862.25;;;2.31;100.00
12203;BME280;6164;42.178;24.622;2023-01-27T05:49:08;98864.44;;;2.36;100.00
12203;BME280;6164;42.178;24.622;2023-01-27T05:51:35;98856.25;;;2.40;100.00
12203;BME280;6164;42.178;24.622;2023-01-27T05:54:03;98860.06;;;2.46;100.00
12203;BME280;6164;42.178;24.622;2023-01-27T05:56:30;98857.31;;;2.47;100.00
12203;BME280;6164;42.178;24.622;2023-01-27T05:58:57;98865.00;;;2.49;100.00
12203;BME280;6164;42.178;24.622;2023-01-27T06:01:24;98860.91;;;2.56;100.00
12203;BME280;6164;42.178;24.622;2023-01-27T06:03:53;98859.13;;;2.56;100.00
12203;BME280;6164;42.178;24.622;2023-01-27T06:06:20;98861.59;;;2.58;100.00
12203;BME280;6164;42.178;24.622;2023-01-27T06:08:47;98855.41;;;2.59;100.00
12203;BME280;6164;42.178;24.622;2023-01-27T06:11:14;98845.69;;;2.61;100.00
12203;BME280;6164;42.178;24.622;2023-01-27T06:13:40;98850.63;;;2.64;100.00
12203;BME280;6164;42.178;24.622;2023-01-27T06:16:07;98848.28;;;2.70;100.00
12203;BME280;6164;42.178;24.622;2023-01-27T06:18:34;98842.81;;;2.73;100.00
12203;BME280;6164;42.178;24.622;2023-01-27T06:21:03;98835.69;;;2.76;100.00
12203;BME280;6164;42.178;24.622;2023-01-27T06:23:30;98831.84;;;2.70;100.00
12203;BME280;6164;42.178;24.622;2023-01-27T06:26:00;98838.00;;;2.79;100.00
12203;BME280;6164;42.178;24.622;2023-01-27T06:28:26;98833.91;;;2.76;100.00
12203;BME280;6164;42.178;24.622;2023-01-27T06:30:53;98841.72;;;2.76;100.00
12203;BME280;6164;42.178;24.622;2023-01-27T06:33:19;98849.25;;;2.79;100.00
12203;BME280;6164;42.178;24.622;2023-01-27T06:35:46;98853.63;;;2.79;100.00
12203;BME280;6164;42.178;24.622;2023-01-27T06:38:14;98854.63;;;2.78;100.00
12203;BME280;6164;42.178;24.622;2023-01-27T06:40:40;98851.88;;;2.79;100.00
12203;BME280;6164;42.178;24.622;2023-01-27T06:43:09;98862.00;;;2.82;100.00
12203;BME280;6164;42.178;24.622;2023-01-27T06:45:36;98863.41;;;2.86;100.00
12203;BME280;6164;42.178;24.622;2023-01-27T06:48:02;98869.53;;;2.85;100.00
12203;BME280;6164;42.178;24.622;2023-01-27T06:50:29;98863.41;;;2.86;100.00
12203;BME280;6164;42.178;24.622;2023-01-27T06:52:58;98865.31;;;2.94;100.00
12203;BME280;6164;42.178;24.622;2023-01-27T06:55:27;98864.09;;;2.88;100.00
12203;BME280;6164;42.178;24.622;2023-01-27T06:57:53;98862.00;;;2.82;100.00
12203;BME280;6164;42.178;24.622;2023-01-27T07:00:20;98857.75;;;2.91;100.00
12203;BME280;6164;42.178;24.622;2023-01-27T07:02:47;98862.97;;;3.00;100.00
12203;BME280;6164;42.178;24.622;2023-01-27T07:05:13;98859.41;;;2.92;100.00
12203;BME280;6164;42.178;24.622;2023-01-27T07:07:40;98856.81;;;3.01;100.00
12203;BME280;6164;42.178;24.622;2023-01-27T07:10:07;98855.69;;;3.04;100.00
12203;BME280;6164;42.178;24.622;2023-01-27T07:12:35;98848.97;;;2.92;100.00
12203;BME280;6164;42.178;24.622;2023-01-27T07:15:02;98855.31;;;2.80;100.00
12203;BME280;6164;42.178;24.622;2023-01-27T07:17:29;98850.78;;;2.82;100.00
12203;BME280;6164;42.178;24.622;2023-01-27T07:19:55;98850.34;;;2.67;100.00
12203;BME280;6164;42.178;24.622;2023-01-27T07:22:22;98851.03;;;2.69;100.00
12203;BME280;6164;42.178;24.622;2023-01-27T07:24:48;98851.03;;;2.69;100.00
12203;BME280;6164;42.178;24.622;2023-01-27T07:27:15;98852.00;;;2.78;100.00
12203;BME280;6164;42.178;24.622;2023-01-27T07:29:43;98868.75;;;2.75;100.00
12203;BME280;6164;42.178;24.622;2023-01-27T07:32:09;98868.75;;;2.94;100.00
12203;BME280;6164;42.178;24.622;2023-01-27T07:34:36;98867.78;;;3.05;100.00
12203;BME280;6164;42.178;24.622;2023-01-27T07:37:02;98870.38;;;3.05;100.00
12203;BME280;6164;42.178;24.622;2023-01-27T07:39:29;98875.59;;;3.14;100.00
12203;BME280;6164;42.178;24.622;2023-01-27T07:41:56;98871.34;;;3.23;100.00
12203;BME280;6164;42.178;24.622;2023-01-27T07:44:23;98868.44;;;3.26;100.00
12203;BME280;6164;42.178;24.622;2023-01-27T07:46:50;98856.47;;;3.33;100.00
12203;BME280;6164;42.178;24.622;2023-01-27T07:49:17;98863.88;;;3.37;100.00
12203;BME280;6164;42.178;24.622;2023-01-27T07:51:43;98850.41;;;3.42;100.00
12203;BME280;6164;42.178;24.622;2023-01-27T07:54:10;98853.56;;;3.45;100.00
12203;BME280;6164;42.178;24.622;2023-01-27T07:56:36;98838.59;;;3.38;100.00
12203;BME280;6164;42.178;24.622;2023-01-27T07:59:03;98840.78;;;3.52;100.00
12203;BME280;6164;42.178;24.622;2023-01-27T08:01:29;98850.88;;;3.64;100.00
12203;BME280;6164;42.178;24.622;2023-01-27T08:03:58;98853.88;;;3.69;100.00
12203;BME280;6164;42.178;24.622;2023-01-27T08:06:24;98855.25;;;3.73;100.00
12203;BME280;6164;42.178;24.622;2023-01-27T08:08:51;98854.88;;;3.68;100.00
12203;BME280;6164;42.178;24.622;2023-01-27T08:11:18;98841.66;;;3.70;100.00
12203;BME280;6164;42.178;24.622;2023-01-27T08:13:44;98849.75;;;3.76;100.00
12203;BME280;6164;42.178;24.622;2023-01-27T08:16:11;98855.94;;;3.75;100.00
12203;BME280;6164;42.178;24.622;2023-01-27T08:18:38;98847.81;;;3.78;100.00
12203;BME280;6164;42.178;24.622;2023-01-27T08:21:08;98842.59;;;3.78;100.00
12203;BME280;6164;42.178;24.622;2023-01-27T08:23:34;98833.94;;;3.78;100.00
12203;BME280;6164;42.178;24.622;2023-01-27T08:26:02;98827.09;;;3.77;100.00
12203;BME280;6164;42.178;24.622;2023-01-27T08:28:29;98831.56;;;3.84;100.00
12203;BME280;6164;42.178;24.622;2023-01-27T08:31:02;98823.94;;;3.73;100.00
12203;BME280;6164;42.178;24.622;2023-01-27T08:33:28;98817.50;;;3.68;100.00
12203;BME280;6164;42.178;24.622;2023-01-27T08:35:55;98811.19;;;3.61;100.00
12203;BME280;6164;42.178;24.622;2023-01-27T08:38:23;98811.72;;;3.64;100.00
12203;BME280;6164;42.178;24.622;2023-01-27T08:40:49;98813.50;;;3.73;100.00
12203;BME280;6164;42.178;24.622;2023-01-27T08:43:15;98817.19;;;3.80;100.00
12203;BME280;6164;42.178;24.622;2023-01-27T08:45:42;98817.28;;;3.88;100.00
12203;BME280;6164;42.178;24.622;2023-01-27T08:48:10;98810.63;;;3.94;100.00
12203;BME280;6164;42.178;24.622;2023-01-27T08:50:37;98807.13;;;3.85;100.00
12203;BME280;6164;42.178;24.622;2023-01-27T08:53:03;98809.75;;;3.85;100.00
12203;BME280;6164;42.178;24.622;2023-01-27T08:55:31;98807.94;;;3.86;100.00
12203;BME280;6164;42.178;24.622;2023-01-27T08:57:58;98815.41;;;3.71;100.00
12203;BME280;6164;42.178;24.622;2023-01-27T09:00:27;98811.41;;;3.77;100.00
12203;BME280;6164;42.178;24.622;2023-01-27T09:02:54;98811.66;;;3.83;100.00
12203;BME280;6164;42.178;24.622;2023-01-27T09:05:20;98805.91;;;3.80;100.00
12203;BME280;6164;42.178;24.622;2023-01-27T09:07:47;98805.22;;;3.78;100.00
12203;BME280;6164;42.178;24.622;2023-01-27T09:10:14;98806.91;;;3.69;100.00
12203;BME280;6164;42.178;24.622;2023-01-27T09:12:42;98808.97;;;3.66;100.00
12203;BME280;6164;42.178;24.622;2023-01-27T09:15:09;98814.88;;;3.68;100.00
12203;BME280;6164;42.178;24.622;2023-01-27T09:17:36;98814.97;;;3.76;100.00
12203;BME280;6164;42.178;24.622;2023-01-27T09:20:03;98813.78;;;3.70;100.00
12203;BME280;6164;42.178;24.622;2023-01-27T09:22:29;98815.28;;;3.73;100.00
12203;BME280;6164;42.178;24.622;2023-01-27T09:24:56;98801.69;;;3.69;100.00
12203;BME280;6164;42.178;24.622;2023-01-27T09:27:22;98802.81;;;3.67;100.00
12203;BME280;6164;42.178;24.622;2023-01-27T09:29:50;98802.22;;;3.73;100.00
12203;BME280;6164;42.178;24.622;2023-01-27T09:32:17;98799.16;;;3.77;100.00
12203;BME280;6164;42.178;24.622;2023-01-27T09:34:43;98792.56;;;3.83;100.00
12203;BME280;6164;42.178;24.622;2023-01-27T09:37:10;98786.25;;;3.85;100.00
12203;BME280;6164;42.178;24.622;2023-01-27T09:39:38;98780.72;;;3.88;100.00
12203;BME280;6164;42.178;24.622;2023-01-27T09:42:20;98779.50;;;4.10;100.00
12203;BME280;6164;42.178;24.622;2023-01-27T09:44:59;98774.81;;;4.31;100.00
12203;BME280;6164;42.178;24.622;2023-01-27T09:47:32;98766.22;;;4.39;100.00
12203;BME280;6164;42.178;24.622;2023-01-27T09:50:05;98775.63;;;4.49;100.00
12203;BME280;6164;42.178;24.622;2023-01-27T09:52:40;98770.94;;;4.53;100.00
12203;BME280;6164;42.178;24.622;2023-01-27T09:55:12;98767.34;;;4.54;100.00
12203;BME280;6164;42.178;24.622;2023-01-27T09:57:44;98765.78;;;4.61;100.00
12203;BME280;6164;42.178;24.622;2023-01-27T10:00:20;98758.97;;;4.68;100.00
12203;BME280;6164;42.178;24.622;2023-01-27T10:02:53;98760.31;;;4.54;100.00
12203;BME280;6164;42.178;24.622;2023-01-27T10:05:31;98760.78;;;4.50;100.00
12203;BME280;6164;42.178;24.622;2023-01-27T10:08:10;98750.41;;;4.58;100.00
12203;BME280;6164;42.178;24.622;2023-01-27T10:10:49;98752.25;;;4.65;100.00
12203;BME280;6164;42.178;24.622;2023-01-27T10:13:21;98748.16;;;4.63;100.00
12203;BME280;6164;42.178;24.622;2023-01-27T10:15:55;98747.25;;;4.54;100.00
12203;BME280;6164;42.178;24.622;2023-01-27T10:18:28;98748.00;;;4.64;100.00
12203;BME280;6164;42.178;24.622;2023-01-27T10:20:58;98746.69;;;4.68;100.00
12203;BME280;6164;42.178;24.622;2023-01-27T10:23:31;98743.78;;;4.71;100.00
12203;BME280;6164;42.178;24.622;2023-01-27T10:26:02;98745.91;;;4.68;100.00
12203;BME280;6164;42.178;24.622;2023-01-27T10:28:31;98730.22;;;4.68;100.00
12203;BME280;6164;42.178;24.622;2023-01-27T10:30:59;98730.28;;;4.58;100.00
12203;BME280;6164;42.178;24.622;2023-01-27T10:33:29;98721.78;;;4.56;100.00
12203;BME280;6164;42.178;24.622;2023-01-27T10:35:58;98725.22;;;4.57;100.00
12203;BME280;6164;42.178;24.622;2023-01-27T10:38:33;98709.53;;;4.57;100.00
12203;BME280;6164;42.178;24.622;2023-01-27T10:41:06;98713.06;;;4.48;100.00
12203;BME280;6164;42.178;24.622;2023-01-27T10:43:37;98712.31;;;4.38;100.00
12203;BME280;6164;42.178;24.622;2023-01-27T10:46:11;98718.44;;;4.29;100.00
12203;BME280;6164;42.178;24.622;2023-01-27T10:48:42;98717.19;;;4.33;100.00
12203;BME280;6164;42.178;24.622;2023-01-27T10:51:12;98713.59;;;4.34;100.00
12203;BME280;6164;42.178;24.622;2023-01-27T10:53:46;98713.44;;;4.35;100.00
12203;BME280;6164;42.178;24.622;2023-01-27T10:56:17;98704.66;;;4.36;100.00
12203;BME280;6164;42.178;24.622;2023-01-27T10:58:50;98702.03;;;4.36;100.00
12203;BME280;6164;42.178;24.622;2023-01-27T11:01:22;98700.69;;;4.32;100.00
12203;BME280;6164;42.178;24.622;2023-01-27T11:03:51;98697.03;;;4.43;100.00
12203;BME280;6164;42.178;24.622;2023-01-27T11:06:20;98698.34;;;4.47;100.00
12203;BME280;6164;42.178;24.622;2023-01-27T11:08:49;98688.34;;;4.42;100.00
12203;BME280;6164;42.178;24.622;2023-01-27T11:11:17;98684.53;;;4.54;100.00
12203;BME280;6164;42.178;24.622;2023-01-27T11:14:08;98677.84;;;4.60;100.00
12203;BME280;6164;42.178;24.622;2023-01-27T11:16:38;98675.31;;;4.68;100.00
12203;BME280;6164;42.178;24.622;2023-01-27T11:19:10;98668.03;;;4.79;100.00
12203;BME280;6164;42.178;24.622;2023-01-27T11:21:39;98673.69;;;4.92;100.00
12203;BME280;6164;42.178;24.622;2023-01-27T11:24:10;98666.97;;;4.98;100.00
12203;BME280;6164;42.178;24.622;2023-01-27T11:26:40;98662.97;;;5.11;100.00
12203;BME280;6164;42.178;24.622;2023-01-27T11:29:12;98667.16;;;5.30;100.00
12203;BME280;6164;42.178;24.622;2023-01-27T11:31:47;98673.09;;;5.40;100.00
12203;BME280;6164;42.178;24.622;2023-01-27T11:34:15;98683.94;;;5.53;100.00
12203;BME280;6164;42.178;24.622;2023-01-27T11:36:43;98691.44;;;5.48;100.00
12203;BME280;6164;42.178;24.622;2023-01-27T11:39:10;98684.31;;;5.32;100.00
12203;BME280;6164;42.178;24.622;2023-01-27T11:41:39;98686.63;;;5.35;100.00
12203;BME280;6164;42.178;24.622;2023-01-27T11:44:07;98674.00;;;5.31;100.00
12203;BME280;6164;42.178;24.622;2023-01-27T11:46:37;98674.66;;;5.25;100.00
12203;BME280;6164;42.178;24.622;2023-01-27T11:49:05;98677.88;;;5.19;100.00
12203;BME280;6164;42.178;24.622;2023-01-27T11:51:34;98663.81;;;5.12;100.00
12203;BME280;6164;42.178;24.622;2023-01-27T11:54:02;98672.81;;;5.17;100.00
12203;BME280;6164;42.178;24.622;2023-01-27T11:56:30;98670.19;;;5.17;100.00
12203;BME280;6164;42.178;24.622;2023-01-27T11:58:58;98669.72;;;5.14;100.00
12203;BME280;6164;42.178;24.622;2023-01-27T12:01:29;98664.41;;;5.06;100.00
12203;BME280;6164;42.178;24.622;2023-01-27T12:04:00;98666.03;;;4.99;100.00
12203;BME280;6164;42.178;24.622;2023-01-27T12:06:32;98666.03;;;4.99;100.00
12203;BME280;6164;42.178;24.622;2023-01-27T12:09:00;98665.41;;;5.05;100.00
12203;BME280;6164;42.178;24.622;2023-01-27T12:11:27;98660.31;;;5.03;100.00
12203;BME280;6164;42.178;24.622;2023-01-27T12:13:55;98660.50;;;5.10;100.00
12203;BME280;6164;42.178;24.622;2023-01-27T12:16:22;98668.22;;;5.11;100.00
12203;BME280;6164;42.178;24.622;2023-01-27T12:18:51;98657.53;;;5.05;100.00
12203;BME280;6164;42.178;24.622;2023-01-27T12:21:19;98660.84;;;5.07;100.00
12203;BME280;6164;42.178;24.622;2023-01-27T12:23:49;98661.84;;;5.14;100.00
12203;BME280;6164;42.178;24.622;2023-01-27T12:26:24;98657.06;;;5.09;100.00
12203;BME280;6164;42.178;24.622;2023-01-27T12:28:53;98657.38;;;5.06;100.00
12203;BME280;6164;42.178;24.622;2023-01-27T12:31:22;98649.22;;;5.09;100.00
12203;BME280;6164;42.178;24.622;2023-01-27T12:33:55;98649.06;;;5.11;100.00
12203;BME280;6164;42.178;24.622;2023-01-27T12:36:23;98650.38;;;5.07;100.00
12203;BME280;6164;42.178;24.622;2023-01-27T12:38:52;98645.00;;;5.16;100.00
12203;BME280;6164;42.178;24.622;2023-01-27T12:41:20;98644.22;;;5.24;100.00
12203;BME280;6164;42.178;24.622;2023-01-27T12:43:51;98634.75;;;5.31;100.00
12203;BME280;6164;42.178;24.622;2023-01-27T12:46:20;98632.16;;;5.39;100.00
12203;BME280;6164;42.178;24.622;2023-01-27T12:48:48;98633.84;;;5.48;100.00
12203;BME280;6164;42.178;24.622;2023-01-27T12:51:16;98639.44;;;5.53;100.00
12203;BME280;6164;42.178;24.622;2023-01-27T12:53:44;98640.88;;;5.48;100.00
12203;BME280;6164;42.178;24.622;2023-01-27T12:56:12;98637.75;;;5.52;100.00
12203;BME280;6164;42.178;24.622;2023-01-27T12:58:40;98632.84;;;5.49;100.00
12203;BME280;6164;42.178;24.622;2023-01-27T13:01:17;98630.41;;;5.56;100.00
12203;BME280;6164;42.178;24.622;2023-01-27T13:03:47;98638.28;;;5.56;100.00
12203;BME280;6164;42.178;24.622;2023-01-27T13:06:14;98642.50;;;5.49;100.00
12203;BME280;6164;42.178;24.622;2023-01-27T13:08:41;98634.50;;;5.50;100.00